FW6831 Weather Reports


Display with metric or nautical units.
time (UTC)temp
F
wind
direction
speed
MPH
gust
MPH
rain 1hr
in
rain 24hr
in
rain mn
in
humidity
%
barometer
mb
20260503004553 73 201 2.0 7.0 0.00 0.03 0.00 79 1022.0
20260503004043 73 195 3.0 7.0 0.00 0.03 0.00 79 1022.1
20260503003543 73 193 0.0 4.0 0.00 0.03 0.00 80 1022.2
20260503003051 73 67 2.0 5.0 0.00 0.03 0.00 80 1022.2
20260503002543 73 154 2.0 5.0 0.00 0.03 0.00 81 1022.2
20260503002043 73 129 3.0 5.0 0.00 0.03 0.00 81 1022.3
20260503001608 72 235 1.0 4.0 0.00 0.03 0.00 82 1022.4
20260503001042 72 198 2.0 4.0 0.00 0.03 0.00 81 1022.4
20260503000544 72 0 0.0 0.0 0.00 0.03 0.00 82 1022.4
20260503000122 72 0 0.0 2.0 0.00 0.03 0.00 82 1022.3
20260502235546 72 0 0.0 2.0 0.00 0.03 0.00 83 1022.3
20260502235043 72 0 0.0 2.0 0.00 0.03 0.00 83 1022.4
20260502234606 71 0 0.0 2.0 0.00 0.03 0.00 85 1022.4
20260502234044 71 0 0.0 2.0 0.00 0.03 0.00 84 1022.5
20260502233544 71 0 0.0 4.0 0.00 0.03 0.00 86 1022.4
20260502233058 70 0 0.0 4.0 0.00 0.03 0.00 86 1022.5
20260502232543 70 176 0.0 4.0 0.00 0.03 0.00 85 1022.5
20260502232044 69 163 0.0 4.0 0.00 0.03 0.00 86 1022.6
20260502231559 69 0 0.0 4.0 0.00 0.03 0.00 85 1022.6
20260502231044 69 192 0.0 5.0 0.00 0.03 0.00 86 1022.7
20260502230541 69 0 1.0 5.0 0.00 0.03 0.00 86 1022.7
20260502230052 69 178 0.0 3.0 0.00 0.03 0.00 86 1022.7
20260502225543 69 0 1.0 3.0 0.00 0.03 0.00 87 1022.7
20260502225044 68 195 1.0 3.0 0.00 0.03 0.00 88 1022.6
20260502224555 68 267 0.0 3.0 0.00 0.03 0.00 89 1022.6
20260502224044 67 191 1.0 4.0 0.00 0.03 0.00 88 1022.6
20260502223544 67 148 1.0 4.0 0.00 0.03 0.00 90 1022.5
20260502223047 66 0 0.0 3.0 0.00 0.03 0.00 92 1022.6
20260502222543 66 175 1.0 3.0 0.00 0.03 0.00 93 1022.5
20260502222043 65 206 1.0 3.0 0.00 0.03 0.00 94 1022.4
20260502221552 65 0 0.0 6.0 0.00 0.03 0.00 96 1022.3
20260502221043 64 127 1.0 6.0 0.00 0.03 0.00 97 1022.3
20260502220544 64 108 1.0 3.0 0.00 0.03 0.00 98 1022.3
20260502220053 64 115 0.0 2.0 0.00 0.03 0.00 98 1022.3
20260502215544 64 116 1.0 2.0 0.00 0.04 0.00 98 1022.2
20260502215043 65 0 0.0 1.0 0.00 0.04 0.00 99 1022.2
20260502214556 66 0 0.0 0.0 0.00 0.04 0.00 99 1022.1
20260502214043 65 0 0.0 0.0 0.00 0.04 0.00 99 1022.2
20260502213543 65 0 0.0 0.0 0.00 0.04 0.00 99 1022.1
20260502213054 64 0 0.0 0.0 0.00 0.04 0.00 99 1022.0
20260502212543 64 0 0.0 0.0 0.00 0.04 0.00 99 1021.9
20260502212044 64 0 0.0 0.0 0.00 0.04 0.00 99 1022.1
20260502211549 63 0 0.0 0.0 0.00 0.04 0.00 99 1022.0
20260502211042 63 0 0.0 0.0 0.00 0.04 0.00 99 1022.0
20260502210543 62 0 0.0 0.0 0.00 0.04 0.00 99 1021.9
20260502210056 61 0 0.0 0.0 0.00 0.04 0.00 99 1021.9
20260502205543 60 0 0.0 0.0 0.00 0.04 0.00 99 1022.0
20260502205044 60 0 0.0 0.0 0.00 0.04 0.00 99 1022.0
20260502204554 60 0 0.0 0.0 0.00 0.04 0.00 99 1021.8
20260502204044 60 0 0.0 0.0 0.00 0.04 0.00 99 1021.7
20260502203544 59 0 0.0 0.0 0.00 0.04 0.00 98 1021.5
20260502203051 59 0 0.0 0.0 0.00 0.04 0.00 98 1021.5
20260502202543 59 0 0.0 0.0 0.00 0.04 0.00 98 1021.5
20260502202048 59 0 0.0 0.0 0.00 0.04 0.00 98 1021.5
20260502201553 59 0 0.0 0.0 0.00 0.04 0.00 98 1021.6
20260502201043 58 0 0.0 0.0 0.00 0.04 0.00 98 1021.5
20260502200544 58 0 0.0 0.0 0.00 0.04 0.00 98 1021.4
20260502200052 58 0 0.0 0.0 0.00 0.04 0.00 98 1021.4
20260502195543 58 0 0.0 0.0 0.00 0.04 0.00 98 1021.3
20260502195043 59 0 0.0 0.0 0.00 0.04 0.00 98 1021.2
20260502194557 59 0 0.0 0.0 0.00 0.04 0.00 98 1021.1
20260502194044 59 0 0.0 0.0 0.00 0.04 0.00 98 1021.0
20260502193544 59 0 0.0 0.0 0.00 0.04 0.00 98 1020.9
20260502193050 59 0 0.0 0.0 0.00 0.04 0.00 98 1021.0
20260502192544 59 0 0.0 0.0 0.00 0.04 0.00 98 1021.0
20260502192043 59 0 0.0 0.0 0.00 0.04 0.00 98 1021.3
20260502191558 58 0 0.0 0.0 0.00 0.04 0.00 98 1021.2
20260502191043 59 0 0.0 0.0 0.00 0.04 0.00 98 1021.0
20260502190543 59 0 0.0 0.0 0.00 0.04 0.00 98 1021.0
20260502190054 59 0 0.0 0.0 0.00 0.04 0.00 98 1020.9
20260502185540 59 0 0.0 0.0 0.00 0.05 0.00 98 1020.8
20260502185043 59 0 0.0 0.0 0.00 0.05 0.00 98 1020.7
20260502184551 59 0 0.0 0.0 0.00 0.05 0.00 98 1020.8
20260502184043 59 0 0.0 0.0 0.00 0.05 0.00 98 1020.9
20260502183543 59 0 0.0 0.0 0.00 0.05 0.00 98 1020.8
20260502183054 59 0 0.0 0.0 0.00 0.05 0.00 98 1020.7
20260502182544 59 0 0.0 0.0 0.00 0.05 0.00 98 1020.8
20260502182043 60 0 0.0 0.0 0.00 0.05 0.00 98 1020.9
20260502181553 60 0 0.0 0.0 0.00 0.05 0.00 98 1021.0
20260502181044 60 0 0.0 0.0 0.00 0.05 0.00 98 1021.0
20260502180543 60 0 0.0 0.0 0.00 0.05 0.00 98 1020.9
20260502164043 61 0 0.0 0.0 0.00 0.21 0.00 98 1021.5
20260502163545 61 0 0.0 1.0 0.00 0.21 0.00 98 1021.4
20260502163101 61 0 0.0 1.0 0.00 0.21 0.00 98 1021.4
20260502162545 61 0 0.0 1.0 0.00 0.21 0.00 98 1021.5
20260502162046 61 0 0.0 0.0 0.00 0.21 0.00 98 1021.5
20260502161549 61 0 0.0 0.0 0.00 0.21 0.00 98 1021.4
20260502161046 61 0 0.0 0.0 0.00 0.21 0.00 98 1021.4
20260502160546 61 0 0.0 0.0 0.00 0.21 0.00 98 1021.5
20260502152043 63 0 0.0 0.0 0.00 0.21 0.00 98 1021.9
20260502151604 63 0 0.0 0.0 0.00 0.21 0.00 98 1021.9
20260502151045 63 0 0.0 0.0 0.00 0.21 0.00 98 1022.0
20260502150543 63 0 0.0 0.0 0.00 0.21 0.00 98 1022.1
20260502130543 64 0 0.0 1.0 0.00 0.22 0.22 98 1022.3
20260502123546 64 0 0.0 1.0 0.00 0.22 0.22 97 1022.4
20260502123059 64 0 0.0 0.0 0.00 0.22 0.22 97 1022.4
20260502122543 65 0 0.0 1.0 0.00 0.22 0.22 97 1022.4
20260502122043 65 0 0.0 1.0 0.00 0.22 0.22 97 1022.4
20260502121553 65 297 0.0 1.0 0.00 0.22 0.22 97 1022.5
20260502121042 65 0 0.0 1.0 0.00 0.22 0.22 97 1022.7
20260502120546 65 0 0.0 0.0 0.00 0.22 0.22 97 1022.7
20260502115543 65 0 0.0 0.0 0.00 0.29 0.22 97 1022.7
20260502115043 65 0 0.0 0.0 0.00 0.29 0.22 97 1022.7
20260502114553 65 0 0.0 1.0 0.00 0.29 0.22 97 1022.6
20260502114043 65 0 0.0 1.0 0.00 0.29 0.22 97 1022.6
20260502113543 65 0 0.0 1.0 0.00 0.29 0.22 97 1022.6
20260502113052 65 0 0.0 1.0 0.00 0.29 0.22 97 1022.7
20260502112542 65 314 0.0 0.0 0.00 0.29 0.22 97 1022.5
20260502112042 65 314 0.0 1.0 0.00 0.29 0.22 97 1022.4
20260502111553 65 0 0.0 1.0 0.00 0.29 0.22 97 1022.4
20260502111046 65 0 0.0 0.0 0.00 0.29 0.22 97 1022.4
20260502110544 65 0 0.0 0.0 0.00 0.29 0.22 97 1022.6
20260502110053 65 0 0.0 0.0 0.00 0.29 0.22 97 1022.6
20260502105544 65 0 0.0 0.0 0.00 0.46 0.21 97 1022.6
20260502105042 65 0 0.0 0.0 0.00 0.46 0.21 97 1022.5
20260502104545 65 0 0.0 0.0 0.00 0.46 0.21 97 1022.5
20260502104041 65 0 0.0 0.0 0.00 0.46 0.21 97 1022.4
20260502103546 66 0 0.0 0.0 0.00 0.46 0.21 97 1022.4
20260502103117 66 0 0.0 1.0 0.00 0.46 0.21 97 1022.5
20260502102545 66 0 0.0 1.0 0.00 0.46 0.21 97 1022.6
20260502102048 66 313 0.0 1.0 0.00 0.46 0.21 97 1022.5
20260502101600 66 313 0.0 3.0 0.00 0.46 0.21 97 1022.6
20260502101044 66 0 0.0 3.0 0.00 0.46 0.21 97 1022.6
20260502100544 66 183 1.0 3.0 0.00 0.46 0.21 97 1022.5
20260502100113 65 0 0.0 0.0 0.00 0.46 0.21 97 1022.3
20260502091047 66 0 0.0 0.0 0.00 0.46 0.21 96 1021.9
20260502090547 66 0 0.0 0.0 0.00 0.46 0.21 96 1021.9
20260502071045 69 0 0.0 0.0 0.01 0.46 0.21 93 1020.9
20260502070544 69 0 0.0 1.0 0.02 0.46 0.21 93 1020.7
20260502070055 69 0 0.0 1.0 0.02 0.46 0.21 93 1020.9
20260502065543 69 0 0.0 0.0 0.02 0.46 0.21 92 1020.8
20260502065042 69 0 0.0 1.0 0.02 0.46 0.21 91 1020.8
20260502064606 69 0 0.0 1.0 0.01 0.45 0.20 91 1020.7
20260502064042 69 0 0.0 1.0 0.01 0.45 0.20 91 1020.6
20260502063543 69 0 0.0 2.0 0.01 0.45 0.20 90 1020.7
20260502063050 70 192 0.0 2.0 0.01 0.45 0.20 90 1020.6
20260502062542 70 184 0.0 1.0 0.01 0.45 0.20 90 1020.6
20260502062043 70 0 0.0 5.0 0.01 0.45 0.20 89 1020.6
20260502061610 71 0 0.0 5.0 0.01 0.45 0.20 87 1020.7
20260502061043 71 0 1.0 5.0 0.00 0.44 0.19 86 1020.7
20260502060544 71 0 0.0 5.0 0.00 0.44 0.18 86 1020.6
20260502060053 71 160 0.0 5.0 0.00 0.44 0.18 86 1020.7
20260502055543 71 0 0.0 4.0 0.00 0.44 0.18 85 1020.6
20260502055043 72 238 1.0 6.0 0.00 0.44 0.18 84 1020.5
20260502054552 72 195 3.0 10.0 0.00 0.44 0.18 83 1020.6
20260502054042 72 162 4.0 10.0 0.00 0.44 0.18 82 1020.6
20260502053542 73 171 2.0 9.0 0.00 0.44 0.18 81 1020.6
20260502053100 73 202 4.0 13.0 0.00 0.44 0.18 81 1020.6
20260502052542 73 204 4.0 13.0 0.00 0.44 0.18 80 1020.6
20260502052045 73 122 4.0 7.0 0.00 0.44 0.18 80 1020.6
20260502051548 73 143 3.0 11.0 0.00 0.44 0.18 79 1020.5
20260502051044 73 110 4.0 12.0 0.00 0.44 0.18 78 1020.5
20260502050544 74 122 5.0 12.0 0.00 0.44 0.18 78 1020.6
20260502050050 74 153 5.0 12.0 0.00 0.44 0.18 78 1020.6
20260502045548 74 135 5.0 12.0 0.00 0.44 0.18 77 1020.7
20260502045045 74 156 7.0 12.0 0.00 0.44 0.18 76 1020.6
20260502044552 74 125 5.0 10.0 0.00 0.44 0.18 77 1020.6
20260502044044 74 192 4.0 12.0 0.00 0.44 0.18 78 1020.6
20260502043543 74 204 3.0 12.0 0.00 0.44 0.18 79 1020.5
20260502043058 74 176 4.0 8.0 0.00 0.44 0.18 78 1020.5
20260502042544 74 90 4.0 10.0 0.00 0.44 0.18 77 1020.6
20260502042044 74 100 5.0 14.0 0.00 0.44 0.18 78 1020.5
20260502041553 74 155 6.0 14.0 0.00 0.44 0.18 78 1020.5
20260502041047 74 86 6.0 14.0 0.00 0.44 0.18 78 1020.4
20260502040544 75 148 3.0 9.0 0.00 0.44 0.18 79 1020.4
20260502040057 75 101 2.0 9.0 0.00 0.44 0.18 80 1020.6
20260502035544 75 65 4.0 9.0 0.00 0.44 0.18 79 1020.5
20260502035045 75 140 4.0 9.0 0.00 0.44 0.18 78 1020.6
20260502034553 75 158 5.0 13.0 0.00 0.44 0.18 78 1020.5
20260502034045 76 153 5.0 13.0 0.00 0.44 0.18 77 1020.6
20260502033544 75 191 6.0 11.0 0.00 0.44 0.18 76 1020.7
20260502033049 75 231 5.0 10.0 0.00 0.44 0.18 77 1020.6
20260502032544 75 199 4.0 16.0 0.00 0.44 0.18 77 1020.6
20260502032044 74 167 7.0 16.0 0.00 0.44 0.18 77 1020.7
20260502031555 75 110 5.0 13.0 0.00 0.44 0.18 77 1020.8
20260502031042 75 158 3.0 12.0 0.00 0.44 0.18 76 1020.9
20260502030544 75 162 6.0 13.0 0.00 0.44 0.18 76 1020.9
20260502030059 74 136 6.0 13.0 0.00 0.44 0.18 75 1020.9
20260502025544 75 190 5.0 16.0 0.00 0.44 0.18 75 1020.9
20260502025044 75 188 5.0 16.0 0.00 0.44 0.18 75 1021.3
20260502024603 76 192 4.0 15.0 0.00 0.44 0.18 77 1021.3
20260502024044 75 169 5.0 15.0 0.00 0.44 0.18 78 1021.3
20260502023543 74 109 1.0 9.0 0.00 0.44 0.18 79 1021.1
20260502023056 74 155 3.0 9.0 0.00 0.44 0.18 78 1021.3
20260502022544 75 68 5.0 12.0 0.00 0.44 0.18 75 1021.3
20260502022044 76 108 4.0 12.0 0.00 0.44 0.18 74 1021.5
20260502021606 77 146 4.0 12.0 0.00 0.44 0.18 75 1021.4
20260502021044 76 89 4.0 12.0 0.00 0.44 0.18 76 1021.7
20260502020544 75 112 5.0 12.0 0.00 0.44 0.18 75 1021.5
20260502020053 74 63 5.0 11.0 0.00 0.44 0.18 78 1021.7
20260502015547 74 177 4.0 11.0 0.00 0.44 0.18 79 1021.7
20260502015046 74 98 2.0 13.0 0.00 0.44 0.18 78 1021.7
20260502014553 74 165 3.0 13.0 0.00 0.44 0.18 79 1021.8
20260502014044 74 131 5.0 10.0 0.00 0.44 0.18 78 1021.8
20260502013544 74 151 4.0 13.0 0.00 0.44 0.18 78 1022.0
20260502013056 74 120 5.0 13.0 0.00 0.44 0.18 78 1022.0
20260502012547 74 207 4.0 12.0 0.00 0.44 0.18 78 1022.0
20260502012044 74 159 6.0 12.0 0.00 0.44 0.18 78 1022.1
20260502011550 74 180 2.0 11.0 0.00 0.44 0.18 79 1022.1
20260502011044 74 193 3.0 11.0 0.00 0.44 0.18 79 1022.2
20260502010547 74 169 6.0 11.0 0.00 0.44 0.18 79 1022.4
20260502010048 74 143 4.0 15.0 0.00 0.44 0.18 79 1022.3
20260502005544 75 146 4.0 15.0 0.00 0.44 0.18 79 1022.5
20260502005043 75 181 3.0 14.0 0.00 0.44 0.18 78 1022.7